sensor_id;sensor_type;location;lat;lon;timestamp;P1;durP1;ratioP1;P2;durP2;ratioP2
79346;SDS011;68815;48.810;44.482;2023-09-18T00:02:35;7.6;;;3.9;;
79346;SDS011;68815;48.810;44.482;2023-09-18T00:05:36;6.9;;;3.9;;
79346;SDS011;68815;48.810;44.482;2023-09-18T00:08:39;7.4;;;3.8;;
79346;SDS011;68815;48.810;44.482;2023-09-18T00:11:40;8.7;;;4.2;;
79346;SDS011;68815;48.810;44.482;2023-09-18T00:14:42;7.7;;;3.8;;
79346;SDS011;68815;48.810;44.482;2023-09-18T00:17:43;8;;;3.7;;
79346;SDS011;68815;48.810;44.482;2023-09-18T00:20:45;8.3;;;4.5;;
79346;SDS011;68815;48.810;44.482;2023-09-18T00:23:46;6.5;;;3.8;;
79346;SDS011;68815;48.810;44.482;2023-09-18T00:26:48;7.2;;;3.7;;
79346;SDS011;68815;48.810;44.482;2023-09-18T00:29:49;7.9;;;4.3;;
79346;SDS011;68815;48.810;44.482;2023-09-18T00:32:51;7.1;;;3.7;;
79346;SDS011;68815;48.810;44.482;2023-09-18T00:35:53;8.3;;;4.1;;
79346;SDS011;68815;48.810;44.482;2023-09-18T00:38:55;9.1;;;4.3;;
79346;SDS011;68815;48.810;44.482;2023-09-18T00:41:56;7.1;;;4.2;;
79346;SDS011;68815;48.810;44.482;2023-09-18T00:44:58;9.1;;;4.1;;
79346;SDS011;68815;48.810;44.482;2023-09-18T00:47:59;7.1;;;4.2;;
79346;SDS011;68815;48.810;44.482;2023-09-18T00:51:02;8.2;;;4.5;;
79346;SDS011;68815;48.810;44.482;2023-09-18T00:54:04;7.8;;;4.1;;
79346;SDS011;68815;48.810;44.482;2023-09-18T00:57:06;6.1;;;3.9;;
79346;SDS011;68815;48.810;44.482;2023-09-18T01:00:07;7.6;;;3.9;;
79346;SDS011;68815;48.810;44.482;2023-09-18T01:03:09;7.4;;;3.9;;
79346;SDS011;68815;48.810;44.482;2023-09-18T01:06:11;7.1;;;4.1;;
79346;SDS011;68815;48.810;44.482;2023-09-18T01:09:12;7.6;;;4.1;;
79346;SDS011;68815;48.810;44.482;2023-09-18T01:12:15;7.7;;;4;;
79346;SDS011;68815;48.810;44.482;2023-09-18T01:15:22;7;;;4.3;;
79346;SDS011;68815;48.810;44.482;2023-09-18T01:18:26;8.7;;;4.1;;
79346;SDS011;68815;48.810;44.482;2023-09-18T01:21:28;7;;;3.7;;
79346;SDS011;68815;48.810;44.482;2023-09-18T01:24:29;8.1;;;4.1;;
79346;SDS011;68815;48.810;44.482;2023-09-18T01:27:31;7.6;;;4.2;;
79346;SDS011;68815;48.810;44.482;2023-09-18T01:30:32;7.7;;;3.9;;
79346;SDS011;68815;48.810;44.482;2023-09-18T01:33:34;8;;;4.2;;
79346;SDS011;68815;48.810;44.482;2023-09-18T01:36:38;7.9;;;4.2;;
79346;SDS011;68815;48.810;44.482;2023-09-18T01:39:40;7;;;4.4;;
79346;SDS011;68815;48.810;44.482;2023-09-18T01:42:42;7.2;;;4.1;;
79346;SDS011;68815;48.810;44.482;2023-09-18T01:45:44;7.2;;;3.8;;
79346;SDS011;68815;48.810;44.482;2023-09-18T01:48:46;9;;;4.5;;
79346;SDS011;68815;48.810;44.482;2023-09-18T01:51:48;8.4;;;4.2;;
79346;SDS011;68815;48.810;44.482;2023-09-18T01:54:49;8.4;;;4.4;;
79346;SDS011;68815;48.810;44.482;2023-09-18T01:57:51;8;;;4.3;;
79346;SDS011;68815;48.810;44.482;2023-09-18T02:00:53;8.1;;;4.4;;
79346;SDS011;68815;48.810;44.482;2023-09-18T02:03:54;9.2;;;4.5;;
79346;SDS011;68815;48.810;44.482;2023-09-18T02:06:56;8.7;;;4.3;;
79346;SDS011;68815;48.810;44.482;2023-09-18T02:09:57;7.2;;;4.1;;
79346;SDS011;68815;48.810;44.482;2023-09-18T02:12:59;8;;;4.5;;
79346;SDS011;68815;48.810;44.482;2023-09-18T02:16:00;6;;;3.8;;
79346;SDS011;68815;48.810;44.482;2023-09-18T02:19:02;7;;;4.2;;
79346;SDS011;68815;48.810;44.482;2023-09-18T02:22:05;8.7;;;4.3;;
79346;SDS011;68815;48.810;44.482;2023-09-18T02:25:07;7;;;4.1;;
79346;SDS011;68815;48.810;44.482;2023-09-18T02:28:09;7.1;;;4.1;;
79346;SDS011;68815;48.810;44.482;2023-09-18T02:31:11;6.7;;;4;;
79346;SDS011;68815;48.810;44.482;2023-09-18T02:34:12;8.6;;;4.1;;
79346;SDS011;68815;48.810;44.482;2023-09-18T02:37:14;7.3;;;4.3;;
79346;SDS011;68815;48.810;44.482;2023-09-18T02:40:15;8.3;;;4.3;;
79346;SDS011;68815;48.810;44.482;2023-09-18T02:43:17;7.7;;;4.2;;
79346;SDS011;68815;48.810;44.482;2023-09-18T02:46:18;7.3;;;3.9;;
79346;SDS011;68815;48.810;44.482;2023-09-18T02:49:20;6.7;;;3.7;;
79346;SDS011;68815;48.810;44.482;2023-09-18T02:52:21;8.1;;;4;;
79346;SDS011;68815;48.810;44.482;2023-09-18T02:55:23;11.2;;;4.5;;
79346;SDS011;68815;48.810;44.482;2023-09-18T02:58:24;7.3;;;4.1;;
79346;SDS011;68815;48.810;44.482;2023-09-18T03:01:26;7.1;;;4.1;;
79346;SDS011;68815;48.810;44.482;2023-09-18T03:04:29;6.7;;;3.9;;
79346;SDS011;68815;48.810;44.482;2023-09-18T03:07:30;7.1;;;3.9;;
79346;SDS011;68815;48.810;44.482;2023-09-18T03:10:32;8.2;;;4.1;;
79346;SDS011;68815;48.810;44.482;2023-09-18T03:13:34;7.5;;;3.8;;
79346;SDS011;68815;48.810;44.482;2023-09-18T03:16:35;7.6;;;4.2;;
79346;SDS011;68815;48.810;44.482;2023-09-18T03:19:37;7.4;;;4.2;;
79346;SDS011;68815;48.810;44.482;2023-09-18T03:22:39;8.6;;;4.2;;
79346;SDS011;68815;48.810;44.482;2023-09-18T03:25:40;7.5;;;4;;
79346;SDS011;68815;48.810;44.482;2023-09-18T03:28:42;9.1;;;4.3;;
79346;SDS011;68815;48.810;44.482;2023-09-18T03:31:43;10.5;;;4.7;;
79346;SDS011;68815;48.810;44.482;2023-09-18T03:34:45;8.2;;;4.2;;
79346;SDS011;68815;48.810;44.482;2023-09-18T03:37:46;7.3;;;4.2;;
79346;SDS011;68815;48.810;44.482;2023-09-18T03:40:48;7.6;;;3.9;;
79346;SDS011;68815;48.810;44.482;2023-09-18T03:43:50;8.3;;;4.4;;
79346;SDS011;68815;48.810;44.482;2023-09-18T03:46:51;9.7;;;4.5;;
79346;SDS011;68815;48.810;44.482;2023-09-18T03:49:53;7.3;;;4.3;;
79346;SDS011;68815;48.810;44.482;2023-09-18T03:52:55;9.5;;;4.2;;
79346;SDS011;68815;48.810;44.482;2023-09-18T03:55:57;7.6;;;4.3;;
79346;SDS011;68815;48.810;44.482;2023-09-18T03:58:58;7.8;;;3.7;;
79346;SDS011;68815;48.810;44.482;2023-09-18T04:01:59;8.1;;;4.4;;
79346;SDS011;68815;48.810;44.482;2023-09-18T04:05:01;8;;;4.3;;
79346;SDS011;68815;48.810;44.482;2023-09-18T04:08:03;7.2;;;4;;
79346;SDS011;68815;48.810;44.482;2023-09-18T04:11:06;10.4;;;4.4;;
79346;SDS011;68815;48.810;44.482;2023-09-18T04:14:07;7.5;;;4.4;;
79346;SDS011;68815;48.810;44.482;2023-09-18T04:17:08;7;;;4.3;;
79346;SDS011;68815;48.810;44.482;2023-09-18T04:20:10;8.6;;;4;;
79346;SDS011;68815;48.810;44.482;2023-09-18T04:23:17;6.2;;;3.7;;
79346;SDS011;68815;48.810;44.482;2023-09-18T04:26:20;7.4;;;4;;
79346;SDS011;68815;48.810;44.482;2023-09-18T04:29:22;8.1;;;3.9;;
79346;SDS011;68815;48.810;44.482;2023-09-18T04:32:23;7.3;;;3.6;;
79346;SDS011;68815;48.810;44.482;2023-09-18T04:35:25;6.8;;;3.8;;
79346;SDS011;68815;48.810;44.482;2023-09-18T04:38:26;10.4;;;4;;
79346;SDS011;68815;48.810;44.482;2023-09-18T04:41:28;9;;;4.5;;
79346;SDS011;68815;48.810;44.482;2023-09-18T04:44:30;8.2;;;3.9;;
79346;SDS011;68815;48.810;44.482;2023-09-18T04:47:31;9;;;3.8;;
79346;SDS011;68815;48.810;44.482;2023-09-18T04:50:33;11;;;3.8;;
79346;SDS011;68815;48.810;44.482;2023-09-18T04:53:35;8.7;;;3.6;;
79346;SDS011;68815;48.810;44.482;2023-09-18T04:56:36;7.1;;;4.1;;
79346;SDS011;68815;48.810;44.482;2023-09-18T04:59:37;9.1;;;4.1;;
79346;SDS011;68815;48.810;44.482;2023-09-18T05:02:39;9.5;;;4;;
79346;SDS011;68815;48.810;44.482;2023-09-18T05:05:41;8.2;;;4.1;;
79346;SDS011;68815;48.810;44.482;2023-09-18T05:08:42;9.6;;;4.2;;
79346;SDS011;68815;48.810;44.482;2023-09-18T05:11:44;13.3;;;4.3;;
79346;SDS011;68815;48.810;44.482;2023-09-18T05:14:46;10.6;;;4;;
79346;SDS011;68815;48.810;44.482;2023-09-18T05:17:47;8.7;;;4.2;;
79346;SDS011;68815;48.810;44.482;2023-09-18T05:20:50;11.6;;;4.5;;
79346;SDS011;68815;48.810;44.482;2023-09-18T05:23:52;8.3;;;4.2;;
79346;SDS011;68815;48.810;44.482;2023-09-18T05:26:54;9.8;;;4.2;;
79346;SDS011;68815;48.810;44.482;2023-09-18T05:29:56;7.5;;;4.4;;
79346;SDS011;68815;48.810;44.482;2023-09-18T05:32:58;7.1;;;4;;
79346;SDS011;68815;48.810;44.482;2023-09-18T05:36:00;8.6;;;4.4;;
79346;SDS011;68815;48.810;44.482;2023-09-18T05:39:01;10.7;;;4.8;;
79346;SDS011;68815;48.810;44.482;2023-09-18T05:42:03;8.9;;;4.2;;
79346;SDS011;68815;48.810;44.482;2023-09-18T05:45:06;11.5;;;4.3;;
79346;SDS011;68815;48.810;44.482;2023-09-18T05:48:07;9.5;;;4.2;;
79346;SDS011;68815;48.810;44.482;2023-09-18T05:51:09;7.4;;;4.5;;
79346;SDS011;68815;48.810;44.482;2023-09-18T05:54:10;7.9;;;4.3;;
79346;SDS011;68815;48.810;44.482;2023-09-18T05:57:12;8.3;;;4.1;;
79346;SDS011;68815;48.810;44.482;2023-09-18T06:00:14;7.9;;;4.2;;
79346;SDS011;68815;48.810;44.482;2023-09-18T06:03:15;10.8;;;4.8;;
79346;SDS011;68815;48.810;44.482;2023-09-18T06:06:17;7.1;;;4.1;;
79346;SDS011;68815;48.810;44.482;2023-09-18T06:09:18;7.8;;;4.5;;
79346;SDS011;68815;48.810;44.482;2023-09-18T06:12:20;7.4;;;4.3;;
79346;SDS011;68815;48.810;44.482;2023-09-18T06:15:21;10.7;;;4.6;;
79346;SDS011;68815;48.810;44.482;2023-09-18T06:18:23;12.1;;;7.1;;
79346;SDS011;68815;48.810;44.482;2023-09-18T06:21:24;11.1;;;4.2;;
79346;SDS011;68815;48.810;44.482;2023-09-18T06:24:26;9.1;;;3.5;;
79346;SDS011;68815;48.810;44.482;2023-09-18T06:27:28;8.2;;;3.8;;
79346;SDS011;68815;48.810;44.482;2023-09-18T06:30:30;9;;;3.9;;
79346;SDS011;68815;48.810;44.482;2023-09-18T06:33:32;6.6;;;3.9;;
79346;SDS011;68815;48.810;44.482;2023-09-18T06:36:34;7;;;3.7;;
79346;SDS011;68815;48.810;44.482;2023-09-18T06:39:35;9.5;;;3.7;;
79346;SDS011;68815;48.810;44.482;2023-09-18T06:42:37;7;;;3.8;;
79346;SDS011;68815;48.810;44.482;2023-09-18T06:45:38;6.4;;;3.9;;
79346;SDS011;68815;48.810;44.482;2023-09-18T06:48:39;7;;;3.4;;
79346;SDS011;68815;48.810;44.482;2023-09-18T06:51:41;5.7;;;3.8;;
79346;SDS011;68815;48.810;44.482;2023-09-18T06:54:42;9.6;;;4.2;;
79346;SDS011;68815;48.810;44.482;2023-09-18T06:57:44;7.3;;;4.1;;
79346;SDS011;68815;48.810;44.482;2023-09-18T07:00:45;9.7;;;4.2;;
79346;SDS011;68815;48.810;44.482;2023-09-18T07:03:47;7.6;;;4;;
79346;SDS011;68815;48.810;44.482;2023-09-18T07:06:49;8.7;;;3.8;;
79346;SDS011;68815;48.810;44.482;2023-09-18T07:09:50;6.4;;;3.8;;
79346;SDS011;68815;48.810;44.482;2023-09-18T07:12:52;7.8;;;3.8;;
79346;SDS011;68815;48.810;44.482;2023-09-18T07:15:54;6.9;;;4.1;;
79346;SDS011;68815;48.810;44.482;2023-09-18T07:18:55;6.9;;;3.8;;
79346;SDS011;68815;48.810;44.482;2023-09-18T07:21:56;6.5;;;3.5;;
79346;SDS011;68815;48.810;44.482;2023-09-18T07:24:58;7.7;;;3.7;;
79346;SDS011;68815;48.810;44.482;2023-09-18T07:28:00;6.3;;;3.9;;
79346;SDS011;68815;48.810;44.482;2023-09-18T07:31:05;6.8;;;3.7;;
79346;SDS011;68815;48.810;44.482;2023-09-18T07:34:07;7.8;;;3.9;;
79346;SDS011;68815;48.810;44.482;2023-09-18T07:37:08;7.4;;;3.7;;
79346;SDS011;68815;48.810;44.482;2023-09-18T07:40:10;7.9;;;3.9;;
79346;SDS011;68815;48.810;44.482;2023-09-18T07:43:12;6.7;;;3.4;;
79346;SDS011;68815;48.810;44.482;2023-09-18T07:46:14;9.5;;;3.8;;
79346;SDS011;68815;48.810;44.482;2023-09-18T07:49:15;6.2;;;3.8;;
79346;SDS011;68815;48.810;44.482;2023-09-18T07:52:17;6.1;;;3.7;;
79346;SDS011;68815;48.810;44.482;2023-09-18T07:55:19;7.5;;;3.6;;
79346;SDS011;68815;48.810;44.482;2023-09-18T07:58:20;8.2;;;3.8;;
79346;SDS011;68815;48.810;44.482;2023-09-18T08:01:22;6.6;;;3.9;;
79346;SDS011;68815;48.810;44.482;2023-09-18T08:04:23;7;;;4;;
79346;SDS011;68815;48.810;44.482;2023-09-18T08:07:25;8;;;4.3;;
79346;SDS011;68815;48.810;44.482;2023-09-18T08:10:26;6.5;;;4;;
79346;SDS011;68815;48.810;44.482;2023-09-18T08:13:28;6.5;;;4;;
79346;SDS011;68815;48.810;44.482;2023-09-18T08:16:29;6.4;;;4;;
79346;SDS011;68815;48.810;44.482;2023-09-18T08:19:31;8.5;;;4;;
79346;SDS011;68815;48.810;44.482;2023-09-18T08:22:32;7.2;;;4.1;;
79346;SDS011;68815;48.810;44.482;2023-09-18T08:25:34;8.6;;;4.1;;
79346;SDS011;68815;48.810;44.482;2023-09-18T08:28:35;8.2;;;3.9;;
79346;SDS011;68815;48.810;44.482;2023-09-18T08:31:38;7.9;;;4.2;;
79346;SDS011;68815;48.810;44.482;2023-09-18T08:34:40;7.6;;;4.2;;
79346;SDS011;68815;48.810;44.482;2023-09-18T08:37:42;8.5;;;3.9;;
79346;SDS011;68815;48.810;44.482;2023-09-18T08:40:44;6.4;;;3.9;;
79346;SDS011;68815;48.810;44.482;2023-09-18T08:43:46;7.3;;;3.9;;
79346;SDS011;68815;48.810;44.482;2023-09-18T08:46:49;6.6;;;4;;
79346;SDS011;68815;48.810;44.482;2023-09-18T08:49:51;6.9;;;3.8;;
79346;SDS011;68815;48.810;44.482;2023-09-18T08:52:54;7.2;;;3.5;;
79346;SDS011;68815;48.810;44.482;2023-09-18T08:55:57;7.2;;;3.8;;
79346;SDS011;68815;48.810;44.482;2023-09-18T08:58:59;7.9;;;3.9;;
79346;SDS011;68815;48.810;44.482;2023-09-18T09:02:01;8.6;;;4.2;;
79346;SDS011;68815;48.810;44.482;2023-09-18T09:05:03;7.5;;;4;;
79346;SDS011;68815;48.810;44.482;2023-09-18T09:08:06;6.4;;;3.8;;
79346;SDS011;68815;48.810;44.482;2023-09-18T09:11:07;7.6;;;3.9;;
79346;SDS011;68815;48.810;44.482;2023-09-18T09:14:09;9.2;;;4.5;;
79346;SDS011;68815;48.810;44.482;2023-09-18T09:17:11;9.1;;;4.3;;
79346;SDS011;68815;48.810;44.482;2023-09-18T09:20:20;7.8;;;4;;
79346;SDS011;68815;48.810;44.482;2023-09-18T09:23:21;6.4;;;3.9;;
79346;SDS011;68815;48.810;44.482;2023-09-18T09:26:23;7.8;;;3.8;;
79346;SDS011;68815;48.810;44.482;2023-09-18T09:29:24;7.3;;;4.1;;
79346;SDS011;68815;48.810;44.482;2023-09-18T09:32:26;9;;;4.4;;
79346;SDS011;68815;48.810;44.482;2023-09-18T09:35:34;8;;;4;;
79346;SDS011;68815;48.810;44.482;2023-09-18T09:38:37;12.7;;;4.4;;
79346;SDS011;68815;48.810;44.482;2023-09-18T09:41:44;7;;;4;;
79346;SDS011;68815;48.810;44.482;2023-09-18T09:44:46;7.6;;;4.2;;
79346;SDS011;68815;48.810;44.482;2023-09-18T09:47:48;7.6;;;4.2;;
79346;SDS011;68815;48.810;44.482;2023-09-18T09:50:49;8.9;;;4.3;;
79346;SDS011;68815;48.810;44.482;2023-09-18T09:53:50;9.3;;;4.2;;
79346;SDS011;68815;48.810;44.482;2023-09-18T09:56:52;9.3;;;4.4;;
79346;SDS011;68815;48.810;44.482;2023-09-18T09:59:55;8.5;;;4.4;;
79346;SDS011;68815;48.810;44.482;2023-09-18T10:03:08;7.8;;;3.7;;
79346;SDS011;68815;48.810;44.482;2023-09-18T10:06:11;8.4;;;3.8;;
79346;SDS011;68815;48.810;44.482;2023-09-18T10:09:13;9.9;;;4.1;;
79346;SDS011;68815;48.810;44.482;2023-09-18T10:12:17;9;;;3.9;;
79346;SDS011;68815;48.810;44.482;2023-09-18T10:15:26;8.9;;;3.9;;
79346;SDS011;68815;48.810;44.482;2023-09-18T10:18:31;6.9;;;4.3;;
79346;SDS011;68815;48.810;44.482;2023-09-18T10:21:41;14;;;4.5;;
79346;SDS011;68815;48.810;44.482;2023-09-18T10:24:53;7.7;;;4.4;;
79346;SDS011;68815;48.810;44.482;2023-09-18T10:28:00;6.4;;;3.8;;
79346;SDS011;68815;48.810;44.482;2023-09-18T10:31:02;7.2;;;4;;
79346;SDS011;68815;48.810;44.482;2023-09-18T10:34:04;6.7;;;3.6;;
79346;SDS011;68815;48.810;44.482;2023-09-18T10:37:06;8.8;;;3.8;;
79346;SDS011;68815;48.810;44.482;2023-09-18T10:40:09;7.2;;;3.7;;
79346;SDS011;68815;48.810;44.482;2023-09-18T10:43:11;8.5;;;3.9;;
79346;SDS011;68815;48.810;44.482;2023-09-18T10:46:17;7.1;;;3.7;;
79346;SDS011;68815;48.810;44.482;2023-09-18T10:49:18;9.1;;;3.8;;
79346;SDS011;68815;48.810;44.482;2023-09-18T10:52:20;6.3;;;3.3;;
79346;SDS011;68815;48.810;44.482;2023-09-18T10:55:22;9.5;;;3.9;;
79346;SDS011;68815;48.810;44.482;2023-09-18T10:58:24;7.7;;;3.6;;
79346;SDS011;68815;48.810;44.482;2023-09-18T11:01:27;8.8;;;3.8;;
79346;SDS011;68815;48.810;44.482;2023-09-18T11:04:29;6.5;;;3.5;;
79346;SDS011;68815;48.810;44.482;2023-09-18T11:07:32;7.1;;;3.5;;
79346;SDS011;68815;48.810;44.482;2023-09-18T11:10:34;7.7;;;3.8;;
79346;SDS011;68815;48.810;44.482;2023-09-18T11:13:36;6.7;;;4;;
79346;SDS011;68815;48.810;44.482;2023-09-18T11:16:40;7.5;;;3.5;;
79346;SDS011;68815;48.810;44.482;2023-09-18T11:19:41;7;;;3.4;;
79346;SDS011;68815;48.810;44.482;2023-09-18T11:22:46;7.6;;;3.7;;
79346;SDS011;68815;48.810;44.482;2023-09-18T11:25:49;6.2;;;3.3;;
79346;SDS011;68815;48.810;44.482;2023-09-18T11:28:53;7.8;;;3.5;;
79346;SDS011;68815;48.810;44.482;2023-09-18T11:31:56;6.8;;;3.2;;
79346;SDS011;68815;48.810;44.482;2023-09-18T11:35:06;7.1;;;3.6;;
79346;SDS011;68815;48.810;44.482;2023-09-18T11:38:09;7.8;;;3.7;;
79346;SDS011;68815;48.810;44.482;2023-09-18T11:44:32;6.8;;;3.7;;
79346;SDS011;68815;48.810;44.482;2023-09-18T11:47:34;6.3;;;3.5;;
79346;SDS011;68815;48.810;44.482;2023-09-18T11:50:36;8.6;;;3.4;;
79346;SDS011;68815;48.810;44.482;2023-09-18T11:53:38;7;;;3.5;;
79346;SDS011;68815;48.810;44.482;2023-09-18T11:56:41;8.4;;;3.5;;
79346;SDS011;68815;48.810;44.482;2023-09-18T11:59:42;8.8;;;3.8;;
79346;SDS011;68815;48.810;44.482;2023-09-18T12:02:44;6.6;;;3.4;;
79346;SDS011;68815;48.810;44.482;2023-09-18T12:05:45;6;;;3.8;;
79346;SDS011;68815;48.810;44.482;2023-09-18T12:08:48;6.5;;;3.4;;
79346;SDS011;68815;48.810;44.482;2023-09-18T12:11:52;6.1;;;3.4;;
79346;SDS011;68815;48.810;44.482;2023-09-18T12:14:54;8.3;;;3.3;;
79346;SDS011;68815;48.810;44.482;2023-09-18T12:17:55;7.4;;;3.2;;
79346;SDS011;68815;48.810;44.482;2023-09-18T12:20:57;9.3;;;3.4;;
79346;SDS011;68815;48.810;44.482;2023-09-18T12:23:59;8;;;3.1;;
79346;SDS011;68815;48.810;44.482;2023-09-18T12:27:00;6.3;;;3.1;;
79346;SDS011;68815;48.810;44.482;2023-09-18T12:30:02;6.6;;;3.3;;
79346;SDS011;68815;48.810;44.482;2023-09-18T12:33:05;7.3;;;3.2;;
79346;SDS011;68815;48.810;44.482;2023-09-18T12:36:07;9.2;;;3.1;;
79346;SDS011;68815;48.810;44.482;2023-09-18T12:39:09;8.3;;;3.1;;
79346;SDS011;68815;48.810;44.482;2023-09-18T12:42:10;6.3;;;3.1;;
79346;SDS011;68815;48.810;44.482;2023-09-18T12:45:14;8.5;;;3.1;;
79346;SDS011;68815;48.810;44.482;2023-09-18T12:48:17;7.3;;;3.3;;
79346;SDS011;68815;48.810;44.482;2023-09-18T12:51:28;5.9;;;3;;
79346;SDS011;68815;48.810;44.482;2023-09-18T12:54:38;7.4;;;3.1;;
79346;SDS011;68815;48.810;44.482;2023-09-18T12:57:41;8.9;;;3.9;;
79346;SDS011;68815;48.810;44.482;2023-09-18T13:00:46;7;;;3.3;;
79346;SDS011;68815;48.810;44.482;2023-09-18T13:03:49;6.1;;;3;;
79346;SDS011;68815;48.810;44.482;2023-09-18T13:10:09;7.6;;;3.1;;
79346;SDS011;68815;48.810;44.482;2023-09-18T13:13:15;6.1;;;3;;
79346;SDS011;68815;48.810;44.482;2023-09-18T13:16:18;7.2;;;3.4;;
79346;SDS011;68815;48.810;44.482;2023-09-18T13:19:24;8.7;;;3.5;;
79346;SDS011;68815;48.810;44.482;2023-09-18T13:22:26;6.6;;;2.9;;
79346;SDS011;68815;48.810;44.482;2023-09-18T13:25:28;6.2;;;3.2;;
79346;SDS011;68815;48.810;44.482;2023-09-18T13:28:31;8;;;3.1;;
79346;SDS011;68815;48.810;44.482;2023-09-18T13:31:33;7.9;;;2.9;;
79346;SDS011;68815;48.810;44.482;2023-09-18T13:34:35;9.4;;;3.2;;
79346;SDS011;68815;48.810;44.482;2023-09-18T13:37:38;6.7;;;3.2;;
79346;SDS011;68815;48.810;44.482;2023-09-18T13:40:40;13.8;;;3.8;;
79346;SDS011;68815;48.810;44.482;2023-09-18T13:43:41;8.2;;;3.5;;
79346;SDS011;68815;48.810;44.482;2023-09-18T13:46:43;7.6;;;3.6;;
79346;SDS011;68815;48.810;44.482;2023-09-18T13:49:44;10;;;3.6;;
79346;SDS011;68815;48.810;44.482;2023-09-18T13:52:46;9.9;;;3.8;;
79346;SDS011;68815;48.810;44.482;2023-09-18T13:55:48;6.6;;;3.4;;
79346;SDS011;68815;48.810;44.482;2023-09-18T13:58:49;12.4;;;4.6;;
79346;SDS011;68815;48.810;44.482;2023-09-18T14:01:51;8.5;;;3.4;;
79346;SDS011;68815;48.810;44.482;2023-09-18T14:04:52;9.4;;;3.3;;
79346;SDS011;68815;48.810;44.482;2023-09-18T14:07:54;7.9;;;3.6;;
79346;SDS011;68815;48.810;44.482;2023-09-18T14:10:55;8.3;;;3.6;;
79346;SDS011;68815;48.810;44.482;2023-09-18T14:13:57;6.7;;;3.2;;
79346;SDS011;68815;48.810;44.482;2023-09-18T14:17:07;18.8;;;5;;
79346;SDS011;68815;48.810;44.482;2023-09-18T14:20:09;7.6;;;3.5;;
79346;SDS011;68815;48.810;44.482;2023-09-18T14:23:11;8.8;;;3.5;;
79346;SDS011;68815;48.810;44.482;2023-09-18T14:26:12;7.8;;;3.4;;
79346;SDS011;68815;48.810;44.482;2023-09-18T14:29:14;11.2;;;3.8;;
79346;SDS011;68815;48.810;44.482;2023-09-18T14:32:15;9.6;;;4;;
79346;SDS011;68815;48.810;44.482;2023-09-18T14:35:17;14.5;;;4.4;;
79346;SDS011;68815;48.810;44.482;2023-09-18T14:38:19;15.7;;;4.6;;
79346;SDS011;68815;48.810;44.482;2023-09-18T14:41:21;13.3;;;4.1;;
79346;SDS011;68815;48.810;44.482;2023-09-18T14:44:22;19;;;4.6;;
79346;SDS011;68815;48.810;44.482;2023-09-18T14:47:24;14.9;;;4.3;;
79346;SDS011;68815;48.810;44.482;2023-09-18T14:50:25;18.5;;;4.3;;
79346;SDS011;68815;48.810;44.482;2023-09-18T14:53:27;22.7;;;5.1;;
79346;SDS011;68815;48.810;44.482;2023-09-18T14:56:28;11.4;;;4.6;;
79346;SDS011;68815;48.810;44.482;2023-09-18T14:59:30;13.2;;;4.9;;
79346;SDS011;68815;48.810;44.482;2023-09-18T15:02:31;23.8;;;5.9;;
79346;SDS011;68815;48.810;44.482;2023-09-18T15:05:33;22.4;;;5.6;;
79346;SDS011;68815;48.810;44.482;2023-09-18T15:08:34;19.3;;;6.3;;
79346;SDS011;68815;48.810;44.482;2023-09-18T15:11:36;24.7;;;8.7;;
79346;SDS011;68815;48.810;44.482;2023-09-18T15:14:37;17.7;;;7.5;;
79346;SDS011;68815;48.810;44.482;2023-09-18T15:17:39;20.4;;;6.4;;
79346;SDS011;68815;48.810;44.482;2023-09-18T15:20:41;26.5;;;7.9;;
79346;SDS011;68815;48.810;44.482;2023-09-18T15:23:43;21.8;;;8;;
79346;SDS011;68815;48.810;44.482;2023-09-18T15:26:44;19.2;;;7.2;;
79346;SDS011;68815;48.810;44.482;2023-09-18T15:29:46;15.8;;;5.9;;
79346;SDS011;68815;48.810;44.482;2023-09-18T15:32:48;17;;;6.2;;
79346;SDS011;68815;48.810;44.482;2023-09-18T15:35:51;20.7;;;6.4;;
79346;SDS011;68815;48.810;44.482;2023-09-18T15:38:53;22;;;6.6;;
79346;SDS011;68815;48.810;44.482;2023-09-18T15:41:54;25.9;;;7.6;;
79346;SDS011;68815;48.810;44.482;2023-09-18T15:44:56;21.7;;;7.2;;
79346;SDS011;68815;48.810;44.482;2023-09-18T15:47:58;18;;;7.1;;
79346;SDS011;68815;48.810;44.482;2023-09-18T15:50:59;21.1;;;7.7;;
79346;SDS011;68815;48.810;44.482;2023-09-18T15:54:01;18.4;;;6.2;;
79346;SDS011;68815;48.810;44.482;2023-09-18T15:57:02;18.6;;;6.3;;
79346;SDS011;68815;48.810;44.482;2023-09-18T16:00:04;23;;;6.6;;
79346;SDS011;68815;48.810;44.482;2023-09-18T16:03:07;22.1;;;6.5;;
79346;SDS011;68815;48.810;44.482;2023-09-18T16:06:09;19.2;;;6.5;;
79346;SDS011;68815;48.810;44.482;2023-09-18T16:09:10;20;;;6.7;;
79346;SDS011;68815;48.810;44.482;2023-09-18T16:12:12;22.2;;;6.4;;
79346;SDS011;68815;48.810;44.482;2023-09-18T16:15:13;19.1;;;7.1;;
79346;SDS011;68815;48.810;44.482;2023-09-18T16:18:14;25.8;;;12.5;;
79346;SDS011;68815;48.810;44.482;2023-09-18T16:21:17;28.2;;;9.6;;
79346;SDS011;68815;48.810;44.482;2023-09-18T16:24:19;24.3;;;9.6;;
79346;SDS011;68815;48.810;44.482;2023-09-18T16:27:20;25.9;;;10.7;;
79346;SDS011;68815;48.810;44.482;2023-09-18T16:30:22;25.1;;;11.1;;
79346;SDS011;68815;48.810;44.482;2023-09-18T16:33:23;25.8;;;11.2;;
79346;SDS011;68815;48.810;44.482;2023-09-18T16:36:25;26.8;;;11.4;;
79346;SDS011;68815;48.810;44.482;2023-09-18T16:39:26;26.2;;;10.7;;
79346;SDS011;68815;48.810;44.482;2023-09-18T16:42:28;30.2;;;9.5;;
79346;SDS011;68815;48.810;44.482;2023-09-18T16:45:30;24.2;;;9.2;;
79346;SDS011;68815;48.810;44.482;2023-09-18T16:48:32;27.3;;;9.7;;
79346;SDS011;68815;48.810;44.482;2023-09-18T16:51:34;24.4;;;9.1;;
79346;SDS011;68815;48.810;44.482;2023-09-18T16:54:35;34.7;;;9.7;;
79346;SDS011;68815;48.810;44.482;2023-09-18T16:57:37;22.8;;;8.9;;
79346;SDS011;68815;48.810;44.482;2023-09-18T17:00:38;22.9;;;8.1;;
79346;SDS011;68815;48.810;44.482;2023-09-18T17:03:39;18;;;7.4;;
79346;SDS011;68815;48.810;44.482;2023-09-18T17:06:41;16.1;;;7;;
79346;SDS011;68815;48.810;44.482;2023-09-18T17:09:43;21;;;7.7;;
79346;SDS011;68815;48.810;44.482;2023-09-18T17:12:44;19.8;;;7.6;;
79346;SDS011;68815;48.810;44.482;2023-09-18T17:15:46;16.9;;;7;;
79346;SDS011;68815;48.810;44.482;2023-09-18T17:18:47;15.8;;;6.9;;
79346;SDS011;68815;48.810;44.482;2023-09-18T17:21:49;17.3;;;6.9;;
79346;SDS011;68815;48.810;44.482;2023-09-18T17:24:51;19.6;;;7.2;;
79346;SDS011;68815;48.810;44.482;2023-09-18T17:27:53;18.1;;;7.2;;
79346;SDS011;68815;48.810;44.482;2023-09-18T17:30:54;17.9;;;7.1;;
79346;SDS011;68815;48.810;44.482;2023-09-18T17:33:56;17.7;;;7.3;;
79346;SDS011;68815;48.810;44.482;2023-09-18T17:36:57;15.3;;;7;;
79346;SDS011;68815;48.810;44.482;2023-09-18T17:39:59;16.1;;;6.3;;
79346;SDS011;68815;48.810;44.482;2023-09-18T17:43:00;15.6;;;6.1;;
79346;SDS011;68815;48.810;44.482;2023-09-18T17:46:02;19;;;6.5;;
79346;SDS011;68815;48.810;44.482;2023-09-18T17:49:03;15.2;;;6.1;;
79346;SDS011;68815;48.810;44.482;2023-09-18T17:52:05;12.1;;;5.8;;
79346;SDS011;68815;48.810;44.482;2023-09-18T17:55:07;15.8;;;5.9;;
79346;SDS011;68815;48.810;44.482;2023-09-18T17:58:08;13.8;;;5.5;;
79346;SDS011;68815;48.810;44.482;2023-09-18T18:01:10;14.3;;;5.1;;
79346;SDS011;68815;48.810;44.482;2023-09-18T18:04:11;14.3;;;5.1;;
79346;SDS011;68815;48.810;44.482;2023-09-18T18:07:13;10.2;;;5.5;;
79346;SDS011;68815;48.810;44.482;2023-09-18T18:10:15;14.8;;;5.1;;
79346;SDS011;68815;48.810;44.482;2023-09-18T18:13:16;13.1;;;5.6;;
79346;SDS011;68815;48.810;44.482;2023-09-18T18:16:18;11;;;5.7;;
79346;SDS011;68815;48.810;44.482;2023-09-18T18:19:19;14.6;;;5.5;;
79346;SDS011;68815;48.810;44.482;2023-09-18T18:22:21;16.3;;;5.4;;
79346;SDS011;68815;48.810;44.482;2023-09-18T18:25:24;9.1;;;5;;
79346;SDS011;68815;48.810;44.482;2023-09-18T18:28:25;10;;;5.2;;
79346;SDS011;68815;48.810;44.482;2023-09-18T18:31:27;12.1;;;5.1;;
79346;SDS011;68815;48.810;44.482;2023-09-18T18:34:29;11.2;;;5.2;;
79346;SDS011;68815;48.810;44.482;2023-09-18T18:37:31;9.7;;;5.3;;
79346;SDS011;68815;48.810;44.482;2023-09-18T18:40:32;15.6;;;6.1;;
79346;SDS011;68815;48.810;44.482;2023-09-18T18:43:34;12.2;;;5.2;;